Time;durP1;ratioP1;P1;durP2;ratioP2;P2;SDS_P1;SDS_P2;PMS_P1;PMS_P2;Temp;Humidity;BMP_temperature;BMP_pressure;BME280_temperature;BME280_humidity;BME280_pressure;Samples;Min_cycle;Max_cycle;Signal;HPM_P1;HPM_P2
2022/01/03 00:01:08;;;;;;;5.15;1.90;;;13.00;80.90;;;;;;4918822;29;20270;-86
2022/01/03 00:03:34;;;;;;;5.65;1.92;;;13.00;80.40;;;;;;4936088;29;20390;-83
2022/01/03 00:06:02;;;;;;;5.00;2.10;;;13.00;80.30;;;;;;4935332;29;20032;-84
2022/01/03 00:08:29;;;;;;;5.70;1.38;;;13.00;80.80;;;;;;4936275;29;20032;-82
2022/01/03 00:10:56;;;;;;;4.10;1.45;;;13.10;80.00;;;;;;4935487;29;20413;-82
2022/01/03 00:13:23;;;;;;;5.70;1.95;;;13.10;80.40;;;;;;4935800;29;20056;-87
2022/01/03 00:15:52;;;;;;;6.53;1.98;;;13.00;80.40;;;;;;4935588;29;20039;-80
2022/01/03 00:18:19;;;;;;;7.97;1.85;;;13.20;80.10;;;;;;4936041;29;20044;-82
2022/01/03 00:20:56;;;;;;;5.32;2.70;;;13.20;80.00;;;;;;4936156;29;20034;-82
2022/01/03 00:23:26;;;;;;;10.10;2.17;;;13.10;80.00;;;;;;4935996;29;20051;-82
2022/01/03 00:25:59;;;;;;;5.87;1.70;;;13.20;80.30;;;;;;4935349;29;20043;-83
2022/01/03 00:28:38;;;;;;;7.63;1.75;;;13.10;79.90;;;;;;4936097;29;20272;-82
2022/01/03 00:31:05;;;;;;;6.15;4.20;;;13.10;79.50;;;;;;4935640;29;20054;-83
2022/01/03 00:33:32;;;;;;;3.78;1.95;;;13.10;79.90;;;;;;4935992;29;20039;-83
2022/01/03 00:36:02;;;;;;;5.45;2.80;;;13.10;80.10;;;;;;4935203;29;20464;-82
2022/01/03 00:38:31;;;;;;;6.90;2.10;;;13.00;80.00;;;;;;4935898;29;20046;-82
2022/01/03 00:40:59;;;;;;;4.00;1.17;;;13.10;80.40;;;;;;4920320;29;20051;-79
2022/01/03 00:43:27;;;;;;;5.68;1.13;;;11.90;89.90;;;;;;4935815;29;20375;-80
2022/01/03 00:45:54;;;;;;;3.97;1.73;;;10.60;93.10;;;;;;4934888;29;20035;-77
2022/01/03 00:48:21;;;;;;;5.65;0.95;;;9.90;99.90;;;;;;4935666;29;20489;-81
2022/01/03 00:50:48;;;;;;;3.63;0.75;;;9.40;99.90;;;;;;4934920;29;20048;-80
2022/01/03 00:53:15;;;;;;;0.40;0.30;;;9.20;99.90;;;;;;4917712;29;20044;-80
2022/01/03 00:56:04;;;;;;;4.45;1.00;;;9.00;99.90;;;;;;4918442;29;20051;-77
2022/01/03 00:58:41;;;;;;;2.28;1.23;;;8.90;99.90;;;;;;4935639;29;20040;-80
2022/01/03 01:01:08;;;;;;;2.45;1.23;;;8.80;99.90;;;;;;4935100;29;20039;-81
2022/01/03 01:03:37;;;;;;;2.20;0.80;;;8.80;99.90;;;;;;4933962;29;20050;-82
2022/01/03 01:06:06;;;;;;;2.45;1.08;;;8.70;99.90;;;;;;4917723;29;20482;-82
2022/01/03 01:08:37;;;;;;;1.90;1.10;;;8.70;99.90;;;;;;4935571;29;20031;-81
2022/01/03 01:11:07;;;;;;;3.08;1.20;;;8.70;99.90;;;;;;4934499;29;20055;-81
2022/01/03 01:13:35;;;;;;;3.28;2.75;;;8.70;99.90;;;;;;4934483;29;20035;-84
2022/01/03 01:16:07;;;;;;;6.35;2.00;;;8.80;99.90;;;;;;4917516;29;20074;-79
2022/01/03 01:18:39;;;;;;;2.85;1.38;;;8.90;99.90;;;;;;4918094;29;20043;-80
2022/01/03 01:21:06;;;;;;;4.65;2.92;;;8.90;99.90;;;;;;4920287;29;20048;-82
2022/01/03 01:23:34;;;;;;;3.83;2.72;;;8.90;99.90;;;;;;4922734;29;20035;-85
2022/01/03 01:28:46;;;;;;;1.98;1.15;;;8.70;99.90;;;;;;4933920;29;20413;-85
2022/01/03 01:31:18;;;;;;;6.03;1.30;;;8.70;99.90;;;;;;4933386;29;20684;-81
2022/01/03 01:33:46;;;;;;;5.97;2.75;;;8.60;99.90;;;;;;4918492;29;20044;-82
2022/01/03 01:36:15;;;;;;;2.17;1.30;;;8.60;99.90;;;;;;4917537;29;20048;-81
2022/01/03 01:38:44;;;;;;;5.80;1.65;;;8.60;99.90;;;;;;4933783;29;20048;-81
2022/01/03 01:41:11;;;;;;;3.13;0.93;;;8.60;99.90;;;;;;4917308;29;20502;-84
2022/01/03 01:43:49;;;;;;;3.67;0.90;;;8.60;99.90;;;;;;4933632;29;20031;-84
2022/01/03 01:46:21;;;;;;;4.88;1.55;;;8.50;99.90;;;;;;4916941;29;20051;-81
2022/01/03 01:48:51;;;;;;;3.40;1.50;;;8.50;99.90;;;;;;4933724;29;20047;-82
2022/01/03 01:51:23;;;;;;;4.07;1.77;;;8.40;99.90;;;;;;4914273;29;20406;-82
2022/01/03 01:53:53;;;;;;;;;;;8.50;99.90;;;;;;4915387;29;20065;-83
2022/01/03 01:56:26;;;;;;;3.20;1.23;;;8.40;99.90;;;;;;4914638;29;19915;-82
2022/01/03 01:58:55;;;;;;;4.90;1.30;;;8.40;99.90;;;;;;4914770;29;20052;-81
2022/01/03 02:01:36;;;;;;;1.42;0.98;;;8.40;99.90;;;;;;4914620;29;20048;-83
2022/01/03 02:04:15;;;;;;;3.38;1.23;;;8.30;99.90;;;;;;4917238;29;20048;-79
2022/01/03 02:06:47;;;;;;;4.03;1.30;;;8.40;99.90;;;;;;4918420;29;20446;-81
2022/01/03 02:09:20;;;;;;;6.85;1.48;;;8.30;99.90;;;;;;4917578;29;20055;-81
2022/01/03 02:11:51;;;;;;;3.45;1.52;;;8.30;99.90;;;;;;4918203;29;20051;-82
2022/01/03 02:14:22;;;;;;;3.05;1.27;;;8.30;99.90;;;;;;4932705;29;20044;-81
2022/01/03 02:16:52;;;;;;;4.57;1.88;;;8.40;99.90;;;;;;4917860;29;20060;-81
2022/01/03 02:19:19;;;;;;;5.43;1.90;;;8.40;99.90;;;;;;4917555;29;20048;-80
2022/01/03 02:21:47;;;;;;;5.25;1.88;;;8.40;99.90;;;;;;4918918;29;20036;-81
2022/01/03 02:24:17;;;;;;;5.85;2.08;;;8.40;99.90;;;;;;4917012;29;20052;-80
2022/01/03 02:26:43;;;;;;;13.73;2.58;;;8.40;99.90;;;;;;4919128;29;20048;-84
2022/01/03 02:29:10;;;;;;;6.65;2.25;;;8.50;99.90;;;;;;4918392;29;20043;-83
2022/01/03 02:31:38;;;;;;;7.82;2.47;;;8.50;99.90;;;;;;4917806;29;20398;-82
2022/01/03 02:34:05;;;;;;;2.95;1.70;;;8.60;99.90;;;;;;4916632;29;20043;-84
2022/01/03 02:36:32;;;;;;;11.68;2.15;;;8.60;99.90;;;;;;4917183;29;20126;-81
2022/01/03 02:38:59;;;;;;;4.22;1.48;;;8.60;99.90;;;;;;4916888;29;20413;-79
2022/01/03 02:41:26;;;;;;;11.65;2.15;;;8.70;99.90;;;;;;4917397;29;20048;-80
2022/01/03 02:43:56;;;;;;;6.93;2.40;;;8.70;99.90;;;;;;4933205;29;20040;-80
2022/01/03 02:46:22;;;;;;;4.68;1.77;;;8.70;99.90;;;;;;4916861;29;20056;-78
2022/01/03 02:48:48;;;;;;;4.53;2.22;;;8.70;99.90;;;;;;4918400;29;20036;-79
2022/01/03 02:51:15;;;;;;;3.22;1.50;;;8.70;99.90;;;;;;4919661;29;20047;-78
2022/01/03 02:53:42;;;;;;;1.88;0.60;;;8.60;99.90;;;;;;4920292;29;20070;-79
2022/01/03 02:56:08;;;;;;;7.85;1.33;;;8.50;99.90;;;;;;4919848;29;20054;-79
2022/01/03 02:58:35;;;;;;;5.38;2.55;;;8.50;99.90;;;;;;4937055;29;20040;-79
2022/01/03 03:01:01;;;;;;;7.40;3.13;;;8.50;99.90;;;;;;4919777;29;20121;-79
2022/01/03 03:03:34;;;;;;;5.85;2.65;;;8.50;99.90;;;;;;4935856;29;20040;-83
2022/01/03 03:06:01;;;;;;;5.95;2.10;;;8.50;99.90;;;;;;4919699;29;20051;-81
2022/01/03 03:08:30;;;;;;;9.18;2.60;;;8.50;99.90;;;;;;4920299;29;20039;-83
2022/01/03 03:10:56;;;;;;;5.47;2.10;;;8.60;99.90;;;;;;4935675;29;20372;-85
2022/01/03 03:13:23;;;;;;;4.88;2.80;;;8.50;99.90;;;;;;4926154;29;20040;-83
2022/01/03 03:15:50;;;;;;;10.13;3.83;;;8.60;99.90;;;;;;4953319;29;20040;-83
2022/01/03 03:18:17;;;;;;;10.48;4.20;;;8.60;99.90;;;;;;4936647;29;20054;-80
2022/01/03 03:20:44;;;;;;;9.50;4.55;;;8.60;99.90;;;;;;4936988;29;20039;-81
2022/01/03 03:23:11;;;;;;;3.97;3.15;;;8.60;99.90;;;;;;4929434;29;20036;-82
2022/01/03 03:25:38;;;;;;;6.78;2.67;;;8.60;99.90;;;;;;4920135;29;20059;-81
2022/01/03 03:28:10;;;;;;;5.97;2.88;;;8.60;99.90;;;;;;4935194;29;20039;-83
2022/01/03 03:30:39;;;;;;;6.10;3.35;;;8.60;99.90;;;;;;4904934;29;20046;-83
2022/01/03 03:33:17;;;;;;;8.75;3.22;;;8.50;99.90;;;;;;4935065;29;20039;-83
2022/01/03 03:35:50;;;;;;;10.02;3.72;;;8.50;99.90;;;;;;4920047;29;20050;-83
2022/01/03 03:38:18;;;;;;;5.72;2.80;;;8.50;99.90;;;;;;4936296;29;20036;-83
2022/01/03 03:40:47;;;;;;;2.80;1.40;;;8.40;99.90;;;;;;4919533;29;20044;-84
2022/01/03 03:43:15;;;;;;;4.57;2.17;;;8.50;99.90;;;;;;4934553;29;20044;-83
2022/01/03 03:45:42;;;;;;;12.30;2.55;;;8.40;99.90;;;;;;4919822;29;20046;-84
2022/01/03 03:48:09;;;;;;;9.45;2.90;;;8.30;99.90;;;;;;4918635;29;20090;-83
2022/01/03 03:50:35;;;;;;;5.30;2.13;;;8.30;99.90;;;;;;4936522;29;20028;-83
2022/01/03 03:53:03;;;;;;;8.05;3.15;;;8.20;99.90;;;;;;4936079;29;20040;-82
2022/01/03 03:55:31;;;;;;;7.65;3.35;;;8.30;99.90;;;;;;4936706;29;20489;-84
2022/01/03 03:58:00;;;;;;;8.25;2.83;;;8.20;99.90;;;;;;4919428;29;20047;-83
2022/01/03 04:00:27;;;;;;;12.40;3.70;;;8.20;99.90;;;;;;4934906;29;20048;-83
2022/01/03 04:02:58;;;;;;;5.75;2.58;;;8.10;99.90;;;;;;4935184;29;20043;-83
2022/01/03 04:05:26;;;;;;;7.70;3.05;;;8.00;99.90;;;;;;4934473;29;20054;-83
2022/01/03 04:07:52;;;;;;;7.68;3.13;;;8.00;99.90;;;;;;4919162;29;20404;-83
2022/01/03 04:10:20;;;;;;;6.10;3.10;;;8.00;99.90;;;;;;4918813;29;20051;-83
2022/01/03 04:12:48;;;;;;;8.27;3.72;;;8.00;99.90;;;;;;4935141;29;20055;-83
2022/01/03 04:15:15;;;;;;;7.13;3.05;;;8.10;99.90;;;;;;4935398;29;20031;-83
2022/01/03 04:17:41;;;;;;;7.22;2.65;;;8.10;99.90;;;;;;4918634;29;20059;-83
2022/01/03 04:20:10;;;;;;;4.90;3.30;;;8.20;99.90;;;;;;4918429;29;20043;-83
2022/01/03 04:22:36;;;;;;;4.72;2.33;;;8.20;99.90;;;;;;4935755;29;20046;-83
2022/01/03 04:25:03;;;;;;;7.53;2.05;;;8.20;99.90;;;;;;4935503;29;20051;-83
2022/01/03 04:27:30;;;;;;;6.05;2.42;;;8.20;99.90;;;;;;4918792;29;20050;-84
2022/01/03 04:29:56;;;;;;;9.77;2.33;;;8.20;99.90;;;;;;4936128;29;20031;-83
2022/01/03 04:32:23;;;;;;;4.50;2.17;;;8.20;99.90;;;;;;4933972;29;20731;-83
2022/01/03 04:34:49;;;;;;;5.18;2.15;;;8.20;99.90;;;;;;4935870;29;20039;-82
2022/01/03 04:37:16;;;;;;;4.03;1.60;;;8.20;99.90;;;;;;4934005;29;20054;-81
2022/01/03 04:39:43;;;;;;;4.65;1.67;;;8.20;99.90;;;;;;4919565;29;20047;-82
2022/01/03 04:42:09;;;;;;;6.15;1.70;;;8.20;99.90;;;;;;4918004;29;20048;-82
2022/01/03 04:44:36;;;;;;;3.28;1.50;;;8.20;99.90;;;;;;4936028;29;20038;-82
2022/01/03 04:47:02;;;;;;;8.38;2.33;;;8.10;99.90;;;;;;4918695;29;20051;-83
2022/01/03 04:49:28;;;;;;;5.63;1.95;;;8.10;99.90;;;;;;4934992;29;20035;-83
2022/01/03 04:51:55;;;;;;;7.00;1.70;;;8.10;99.90;;;;;;4914862;29;20048;-82
2022/01/03 04:54:21;;;;;;;4.72;1.65;;;8.10;99.90;;;;;;4917833;29;20036;-80
2022/01/03 04:56:48;;;;;;;3.35;1.60;;;8.10;99.90;;;;;;4932752;29;20074;-81
2022/01/03 04:59:14;;;;;;;8.20;2.25;;;8.10;99.90;;;;;;4915744;29;20040;-81
2022/01/03 05:01:41;;;;;;;5.75;2.50;;;8.00;99.90;;;;;;4915664;29;20055;-82
2022/01/03 05:04:07;;;;;;;4.25;2.63;;;8.00;99.90;;;;;;4914702;29;20044;-82
2022/01/03 05:06:34;;;;;;;5.72;2.53;;;8.00;99.90;;;;;;4916757;29;20051;-82
2022/01/03 05:09:00;;;;;;;8.70;2.35;;;8.10;99.90;;;;;;4914888;29;20040;-81
2022/01/03 05:11:26;;;;;;;6.30;2.55;;;8.10;99.90;;;;;;4915952;29;20032;-81
2022/01/03 05:13:52;;;;;;;10.43;3.08;;;8.00;99.90;;;;;;4916619;29;20036;-81
2022/01/03 05:16:18;;;;;;;6.50;2.45;;;8.10;99.90;;;;;;4915478;29;20509;-80
2022/01/03 05:18:45;;;;;;;4.68;2.90;;;8.10;99.90;;;;;;4930822;29;20044;-80
2022/01/03 05:21:11;;;;;;;8.55;3.25;;;8.00;99.90;;;;;;4930194;29;20048;-81
2022/01/03 05:23:41;;;;;;;8.18;3.50;;;8.10;99.90;;;;;;4931859;29;20059;-80
2022/01/03 05:26:07;;;;;;;11.32;3.35;;;8.30;99.90;;;;;;4914574;29;20405;-79
2022/01/03 05:28:33;;;;;;;4.75;3.15;;;8.20;99.90;;;;;;4915215;29;20402;-79
2022/01/03 05:31:01;;;;;;;4.90;3.40;;;8.30;99.90;;;;;;4914955;29;20047;-80
2022/01/03 05:33:30;;;;;;;10.55;4.70;;;8.30;99.90;;;;;;4930079;29;20040;-81
2022/01/03 05:35:56;;;;;;;7.57;5.60;;;8.20;99.90;;;;;;4916335;29;20043;-80
2022/01/03 05:38:23;;;;;;;10.98;5.18;;;8.20;99.90;;;;;;4916825;29;20138;-79
2022/01/03 05:40:49;;;;;;;5.18;4.63;;;8.20;99.90;;;;;;4918777;29;20394;-80
2022/01/03 05:43:15;;;;;;;9.02;4.45;;;8.20;99.90;;;;;;4933981;29;20040;-79
2022/01/03 05:45:42;;;;;;;9.20;4.10;;;8.10;99.90;;;;;;4918726;29;20055;-79
2022/01/03 05:48:08;;;;;;;11.82;4.05;;;8.10;99.90;;;;;;4918224;29;20044;-78
2022/01/03 05:50:35;;;;;;;10.18;4.32;;;8.00;99.90;;;;;;4936087;29;20055;-78
2022/01/03 05:53:01;;;;;;;10.23;4.63;;;8.10;99.90;;;;;;4921592;29;20051;-80
2022/01/03 05:55:28;;;;;;;8.23;4.63;;;8.10;99.90;;;;;;4936860;29;20609;-79
2022/01/03 05:57:55;;;;;;;9.70;4.95;;;8.20;99.90;;;;;;4937446;29;20059;-79
2022/01/03 06:00:27;;;;;;;;;;;8.10;99.90;;;;;;4921238;29;20047;-79
2022/01/03 06:02:57;;;;;;;8.73;4.22;;;8.20;99.90;;;;;;4921738;29;19966;-79
2022/01/03 06:08:03;;;;;;;12.73;5.38;;;8.20;99.90;;;;;;4938837;29;20043;-80
2022/01/03 06:10:40;;;;;;;15.77;4.97;;;8.20;99.90;;;;;;4938664;29;20019;-80
2022/01/03 06:13:08;;;;;;;11.27;5.45;;;8.30;99.90;;;;;;4921842;29;20047;-80
2022/01/03 06:15:38;;;;;;;15.15;5.55;;;8.20;99.90;;;;;;4921379;29;20048;-81
2022/01/03 06:18:11;;;;;;;16.45;6.60;;;8.30;99.90;;;;;;4921268;29;20055;-80
2022/01/03 06:20:42;;;;;;;10.73;5.80;;;8.20;99.90;;;;;;4921651;29;20083;-80
2022/01/03 06:23:10;;;;;;;13.90;5.43;;;8.20;99.90;;;;;;4938512;29;20405;-79
2022/01/03 06:25:37;;;;;;;9.77;4.57;;;8.30;99.90;;;;;;4920878;29;20044;-80
2022/01/03 06:28:08;;;;;;;10.07;4.75;;;8.40;99.90;;;;;;4920823;29;20487;-80
2022/01/03 06:30:41;;;;;;;12.20;5.03;;;8.30;99.90;;;;;;4920873;29;20043;-80
2022/01/03 06:33:09;;;;;;;12.95;5.30;;;8.40;99.90;;;;;;4937728;29;20110;-80
2022/01/03 06:35:37;;;;;;;9.77;5.30;;;8.30;99.90;;;;;;4921159;29;20047;-80
2022/01/03 06:38:04;;;;;;;10.48;4.45;;;8.30;99.90;;;;;;4940509;29;20039;-80
2022/01/03 06:40:31;;;;;;;13.35;5.82;;;8.40;99.90;;;;;;4920840;29;20240;-80
2022/01/03 06:42:58;;;;;;;13.40;5.13;;;8.40;99.90;;;;;;4921008;29;20048;-80
2022/01/03 06:45:26;;;;;;;20.25;5.90;;;8.40;99.90;;;;;;4936948;29;20039;-79
2022/01/03 06:47:53;;;;;;;15.70;4.70;;;8.40;99.90;;;;;;4919637;29;20062;-80
2022/01/03 06:50:20;;;;;;;12.52;4.18;;;8.40;99.90;;;;;;4919632;29;20042;-80
2022/01/03 06:52:46;;;;;;;12.55;7.45;;;8.40;99.90;;;;;;4936091;29;20405;-80
2022/01/03 06:55:13;;;;;;;17.88;9.52;;;8.40;99.90;;;;;;4919737;29;20520;-80
2022/01/03 06:57:43;;;;;;;36.55;28.48;;;8.40;99.90;;;;;;4920297;29;20063;-81
2022/01/03 07:00:11;;;;;;;39.33;21.42;;;8.40;99.90;;;;;;4920342;29;20489;-81
2022/01/03 07:02:42;;;;;;;23.33;15.32;;;8.50;99.90;;;;;;4920295;29;20048;-80
2022/01/03 07:05:12;;;;;;;68.22;50.83;;;8.40;99.90;;;;;;4937514;29;20044;-81
2022/01/03 07:07:38;;;;;;;27.20;19.10;;;8.40;99.90;;;;;;4937464;29;20043;-78
2022/01/03 07:10:06;;;;;;;17.25;12.07;;;8.50;99.90;;;;;;4937307;29;20028;-77
2022/01/03 07:12:33;;;;;;;44.15;36.22;;;8.50;99.90;;;;;;4936465;29;20054;-77
2022/01/03 07:20:10;;;;;;;41.00;29.60;;;8.50;99.90;;;;;;4936879;29;20039;-77
2022/01/03 07:22:40;;;;;;;16.83;9.52;;;8.50;99.90;;;;;;4936222;29;20028;-79
2022/01/03 07:25:08;;;;;;;24.10;16.42;;;8.50;99.90;;;;;;4936987;29;20038;-79
2022/01/03 07:27:34;;;;;;;61.10;42.28;;;8.40;99.90;;;;;;4936212;29;20036;-78
2022/01/03 07:30:01;;;;;;;118.53;105.68;;;8.40;99.90;;;;;;4936769;29;20043;-77
2022/01/03 07:32:27;;;;;;;31.63;15.65;;;8.40;99.90;;;;;;4936226;29;20036;-76
2022/01/03 07:34:53;;;;;;;32.58;13.63;;;8.30;99.90;;;;;;4936501;29;20051;-76
2022/01/03 07:37:19;;;;;;;14.23;7.88;;;8.40;99.90;;;;;;4936077;29;20466;-76
2022/01/03 07:39:45;;;;;;;40.80;30.63;;;8.50;99.90;;;;;;4937014;29;20035;-76
2022/01/03 07:42:12;;;;;;;29.02;18.23;;;8.40;99.90;;;;;;4936781;29;20032;-77
2022/01/03 07:44:46;;;;;;;22.65;11.38;;;8.50;99.90;;;;;;4919340;29;20493;-77
2022/01/03 07:47:12;;;;;;;17.23;6.85;;;8.60;99.90;;;;;;4936553;29;20043;-77
2022/01/03 07:49:38;;;;;;;13.43;7.70;;;8.70;99.90;;;;;;4935968;29;20042;-77
2022/01/03 07:52:04;;;;;;;21.35;10.07;;;8.60;99.90;;;;;;4936767;29;20473;-77
2022/01/03 07:54:31;;;;;;;11.65;4.25;;;8.60;99.90;;;;;;4935975;29;20035;-77
2022/01/03 07:56:57;;;;;;;24.05;13.27;;;8.60;99.90;;;;;;4935947;29;20046;-76
2022/01/03 07:59:23;;;;;;;23.52;7.50;;;8.70;99.90;;;;;;4934736;29;20051;-76
2022/01/03 08:01:49;;;;;;;19.48;8.90;;;8.70;99.90;;;;;;4918102;29;20050;-75
2022/01/03 08:04:16;;;;;;;19.55;9.73;;;8.70;99.90;;;;;;4936213;29;20035;-74
2022/01/03 08:06:42;;;;;;;24.35;19.45;;;8.80;99.90;;;;;;4936066;29;20036;-77
2022/01/03 08:09:08;;;;;;;17.25;7.85;;;8.80;99.90;;;;;;4936395;29;20032;-76
2022/01/03 08:11:34;;;;;;;22.63;10.43;;;8.80;99.90;;;;;;4935228;29;20035;-76
2022/01/03 08:14:01;;;;;;;18.85;6.75;;;8.80;99.90;;;;;;4935782;29;20036;-77
2022/01/03 08:16:27;;;;;;;17.17;5.75;;;8.80;99.90;;;;;;4935188;29;20047;-76
2022/01/03 08:18:53;;;;;;;15.07;6.18;;;8.80;99.90;;;;;;4936540;29;20047;-76
2022/01/03 08:21:19;;;;;;;15.50;4.22;;;8.80;99.90;;;;;;4935997;29;20040;-77
2022/01/03 08:23:46;;;;;;;16.85;4.07;;;8.90;99.90;;;;;;4954498;29;20035;-79
2022/01/03 08:26:12;;;;;;;12.77;3.22;;;9.10;99.90;;;;;;4935855;29;20062;-80
2022/01/03 08:28:39;;;;;;;12.45;4.22;;;9.00;99.90;;;;;;4918671;29;20040;-79
2022/01/03 08:31:05;;;;;;;12.07;4.50;;;9.00;99.90;;;;;;4936518;29;20036;-77
2022/01/03 08:33:33;;;;;;;11.02;5.70;;;9.10;99.90;;;;;;4934813;29;20362;-77
2022/01/03 08:36:00;;;;;;;21.45;8.57;;;9.00;99.90;;;;;;4935919;29;20028;-77
2022/01/03 08:38:27;;;;;;;11.63;4.68;;;9.10;99.90;;;;;;4921984;29;20035;-79
2022/01/03 08:40:53;;;;;;;10.30;3.95;;;9.10;99.90;;;;;;4945522;29;20479;-77
2022/01/03 08:43:19;;;;;;;9.25;4.18;;;9.10;99.90;;;;;;4940268;29;20470;-78
2022/01/03 08:45:46;;;;;;;12.13;3.88;;;9.10;99.90;;;;;;4935620;29;20043;-79
2022/01/03 08:48:12;;;;;;;16.58;4.22;;;9.10;99.90;;;;;;4935953;29;20048;-78
2022/01/03 08:50:38;;;;;;;11.90;6.25;;;9.10;99.90;;;;;;4934068;29;20039;-80
2022/01/03 08:53:04;;;;;;;17.75;8.43;;;9.10;99.90;;;;;;4935327;29;20039;-79
2022/01/03 08:55:31;;;;;;;10.80;3.72;;;9.10;99.90;;;;;;4934811;29;20382;-79
2022/01/03 08:57:58;;;;;;;10.90;5.28;;;9.20;99.90;;;;;;4934953;29;20039;-79
2022/01/03 09:00:25;;;;;;;22.00;5.30;;;9.20;99.90;;;;;;4934630;29;20040;-78
2022/01/03 09:02:51;;;;;;;8.02;4.47;;;9.30;99.90;;;;;;4935618;29;20034;-79
2022/01/03 09:05:17;;;;;;;12.52;5.18;;;9.30;99.90;;;;;;4935055;29;20397;-78
2022/01/03 09:07:44;;;;;;;12.13;4.10;;;9.40;99.90;;;;;;4934305;29;20039;-79
2022/01/03 09:10:11;;;;;;;8.55;3.85;;;9.40;99.90;;;;;;4935011;29;20038;-77
2022/01/03 09:12:37;;;;;;;12.43;3.60;;;9.50;99.90;;;;;;4934048;29;20051;-79
2022/01/03 09:15:04;;;;;;;9.23;5.50;;;9.50;99.90;;;;;;4935194;29;20500;-78
2022/01/03 09:17:30;;;;;;;10.05;7.07;;;9.60;99.90;;;;;;4934693;29;20043;-78
2022/01/03 09:19:56;;;;;;;6.95;3.00;;;9.70;99.90;;;;;;4934715;29;20047;-78
2022/01/03 09:22:30;;;;;;;5.90;2.75;;;9.80;99.90;;;;;;4934240;29;20409;-77
2022/01/03 09:30:14;;;;;;;10.43;3.00;;;9.90;99.90;;;;;;4935250;29;20035;-78
2022/01/03 09:32:40;;;;;;;7.82;2.97;;;9.80;99.90;;;;;;4934127;29;20036;-78
2022/01/03 09:35:08;;;;;;;7.70;3.03;;;9.90;99.90;;;;;;4934761;29;20032;-78
2022/01/03 09:37:36;;;;;;;15.73;3.42;;;9.90;99.90;;;;;;4916850;29;20047;-78
2022/01/03 09:40:05;;;;;;;11.35;3.42;;;9.90;99.90;;;;;;4934381;29;20067;-78
2022/01/03 09:42:33;;;;;;;12.10;3.75;;;10.00;99.90;;;;;;4933704;29;20035;-78
2022/01/03 09:45:04;;;;;;;7.43;3.53;;;10.00;99.90;;;;;;4934347;29;20032;-79
2022/01/03 09:47:31;;;;;;;9.05;3.45;;;10.00;99.90;;;;;;4933859;29;20040;-78
2022/01/03 09:49:59;;;;;;;6.40;3.08;;;10.10;99.90;;;;;;4917383;29;20032;-80
2022/01/03 09:52:26;;;;;;;14.65;3.75;;;10.20;99.90;;;;;;4933615;29;20505;-77
2022/01/03 09:54:55;;;;;;;8.88;3.58;;;10.20;99.90;;;;;;4934379;29;20393;-80
2022/01/03 09:57:21;;;;;;;10.05;3.92;;;10.30;99.90;;;;;;4917449;29;20059;-80
2022/01/03 09:59:49;;;;;;;10.77;4.88;;;10.30;99.90;;;;;;4933718;29;20067;-79
2022/01/03 10:02:16;;;;;;;9.27;3.95;;;10.40;99.90;;;;;;4933490;29;20385;-80
2022/01/03 10:04:43;;;;;;;10.48;5.57;;;10.40;99.90;;;;;;4933016;29;20040;-78
2022/01/03 10:07:11;;;;;;;17.60;4.90;;;10.50;99.90;;;;;;4933942;29;20043;-80
2022/01/03 10:09:39;;;;;;;12.48;4.00;;;10.50;99.90;;;;;;4933591;29;20043;-79
2022/01/03 10:12:08;;;;;;;8.68;3.92;;;10.50;99.90;;;;;;4954108;28;20031;-79
2022/01/03 10:14:35;;;;;;;10.05;7.00;;;10.60;99.90;;;;;;4972063;28;20042;-79
2022/01/03 10:17:01;;;;;;;14.25;3.88;;;10.60;99.90;;;;;;4972179;28;20401;-79
2022/01/03 10:19:27;;;;;;;9.57;3.88;;;10.70;99.90;;;;;;4971755;28;20119;-73
2022/01/03 10:21:53;;;;;;;11.70;4.68;;;10.70;99.90;;;;;;4972467;28;20035;-74
2022/01/03 10:24:36;;;;;;;11.15;3.60;;;10.70;99.90;;;;;;4974892;28;20480;-74
2022/01/03 10:27:03;;;;;;;8.32;3.40;;;10.80;99.90;;;;;;4975330;28;20043;-74
2022/01/03 10:29:31;;;;;;;15.00;4.13;;;10.80;99.90;;;;;;4974999;28;20042;-73
2022/01/03 10:32:00;;;;;;;8.52;3.72;;;10.80;99.90;;;;;;4972754;28;20047;-74
2022/01/03 10:34:27;;;;;;;6.97;3.15;;;10.80;99.90;;;;;;4947241;29;20032;-74
2022/01/03 10:36:56;;;;;;;9.23;3.08;;;10.70;99.90;;;;;;4946259;29;20039;-75
2022/01/03 10:39:25;;;;;;;11.75;3.47;;;10.70;99.90;;;;;;4929996;29;20050;-75
2022/01/03 10:42:18;;;;;;;11.55;3.08;;;10.70;99.90;;;;;;4926825;29;20485;-76
2022/01/03 10:44:45;;;;;;;8.68;3.60;;;10.70;99.90;;;;;;4937897;29;20038;-76
2022/01/03 10:47:15;;;;;;;9.50;4.35;;;10.80;99.90;;;;;;4950924;29;20043;-75
2022/01/03 10:49:43;;;;;;;8.90;4.47;;;10.80;99.90;;;;;;4944928;29;20035;-75
2022/01/03 10:52:22;;;;;;;17.27;4.60;;;10.80;99.90;;;;;;4952981;29;20132;-75
2022/01/03 10:55:16;;;;;;;8.32;3.80;;;10.90;99.90;;;;;;4955423;29;20641;-74
2022/01/03 10:57:47;;;;;;;17.48;4.43;;;10.90;99.90;;;;;;4955245;29;20050;-74
2022/01/03 11:00:23;;;;;;;7.28;3.58;;;10.90;99.90;;;;;;4940571;29;20039;-74
2022/01/03 11:03:18;;;;;;;4.82;2.75;;;11.00;99.90;;;;;;4956192;29;20039;-73
2022/01/03 11:05:50;;;;;;;6.53;2.85;;;11.00;99.90;;;;;;4955159;29;20031;-73
2022/01/03 11:11:02;;;;;;;6.55;2.88;;;11.00;99.90;;;;;;4956080;29;20050;-73
2022/01/03 11:13:29;;;;;;;7.38;2.28;;;11.10;99.90;;;;;;4937200;29;20077;-73
2022/01/03 11:15:58;;;;;;;9.70;3.00;;;11.20;99.90;;;;;;4955514;29;20042;-73
2022/01/03 11:18:27;;;;;;;13.02;2.90;;;11.20;99.90;;;;;;4954303;29;20039;-73
2022/01/03 11:21:24;;;;;;;5.43;2.65;;;11.20;99.90;;;;;;4954847;29;20050;-74
2022/01/03 11:23:59;;;;;;;5.47;2.50;;;11.30;99.90;;;;;;4954480;29;20039;-77
2022/01/03 11:26:27;;;;;;;9.57;2.95;;;11.30;99.90;;;;;;4955180;29;20058;-77
2022/01/03 11:28:53;;;;;;;6.38;3.25;;;11.40;99.90;;;;;;4954344;28;20043;-76
2022/01/03 11:31:21;;;;;;;16.40;3.13;;;11.40;99.90;;;;;;4954767;29;20388;-76
2022/01/03 11:33:51;;;;;;;14.50;2.65;;;11.40;99.90;;;;;;4937427;29;20035;-77
2022/01/03 11:36:20;;;;;;;13.48;6.50;;;11.40;99.90;;;;;;4954408;29;20035;-76
2022/01/03 11:38:47;;;;;;;13.82;8.20;;;11.40;99.90;;;;;;4954721;29;20039;-76
2022/01/03 11:41:13;;;;;;;16.40;4.15;;;11.40;99.90;;;;;;4955080;28;20035;-76
2022/01/03 11:43:42;;;;;;;15.23;7.88;;;11.30;99.90;;;;;;4963576;28;20035;-76
2022/01/03 11:46:09;;;;;;;8.05;5.72;;;11.30;99.90;;;;;;4960929;28;20027;-77
2022/01/03 11:48:36;;;;;;;12.40;5.20;;;11.30;99.90;;;;;;4961615;28;20042;-77
2022/01/03 11:51:06;;;;;;;9.73;3.95;;;11.40;99.90;;;;;;4974402;28;20401;-77
2022/01/03 11:53:37;;;;;;;10.63;3.97;;;11.40;99.90;;;;;;4956364;28;20054;-75
2022/01/03 11:56:09;;;;;;;11.02;3.97;;;11.40;99.90;;;;;;4973941;28;20290;-77
2022/01/03 12:04:41;;;;;;;13.55;5.15;;;11.40;99.90;;;;;;4973313;28;20045;-76
2022/01/03 12:07:12;;;;;;;8.50;3.85;;;11.40;99.90;;;;;;4973994;28;20031;-78
2022/01/03 12:09:43;;;;;;;9.30;3.58;;;11.40;99.90;;;;;;4973384;28;20035;-76
2022/01/03 12:12:27;;;;;;;8.95;2.97;;;11.40;99.90;;;;;;4974127;28;20031;-78
2022/01/03 12:14:57;;;;;;;10.10;3.55;;;11.40;99.90;;;;;;4973405;28;20031;-78
2022/01/03 12:17:48;;;;;;;11.98;2.50;;;11.40;99.90;;;;;;4974328;28;20377;-78
2022/01/03 12:20:15;;;;;;;10.32;2.85;;;11.40;99.90;;;;;;4974223;28;20039;-77
2022/01/03 12:22:53;;;;;;;9.57;3.50;;;11.50;99.90;;;;;;4973071;28;20034;-77
2022/01/03 12:25:32;;;;;;;10.25;2.60;;;11.50;99.90;;;;;;4973798;28;20038;-78
2022/01/03 12:28:01;;;;;;;4.53;2.70;;;11.50;99.90;;;;;;4973168;28;20035;-78
2022/01/03 12:30:33;;;;;;;9.57;4.18;;;11.50;99.90;;;;;;4974072;28;20039;-78
2022/01/03 12:33:08;;;;;;;11.38;3.83;;;11.50;99.90;;;;;;4973589;28;20388;-77
2022/01/03 12:35:37;;;;;;;5.45;2.70;;;11.50;99.90;;;;;;4955953;28;20058;-76
2022/01/03 12:38:03;;;;;;;6.43;2.00;;;11.60;99.30;;;;;;4973589;28;20038;-76
2022/01/03 12:40:49;;;;;;;12.45;2.22;;;11.50;99.90;;;;;;4973730;28;20042;-76
2022/01/03 12:43:17;;;;;;;9.10;3.22;;;11.50;99.90;;;;;;4973844;28;20388;-77
2022/01/03 12:45:43;;;;;;;10.20;5.63;;;11.50;99.90;;;;;;4961214;28;20042;-77
2022/01/03 12:48:15;;;;;;;7.55;4.43;;;11.50;99.90;;;;;;4981018;28;20042;-77
2022/01/03 12:50:42;;;;;;;8.30;4.10;;;11.50;97.60;;;;;;4975774;28;20063;-72
2022/01/03 12:53:12;;;;;;;9.13;3.50;;;11.50;99.90;;;;;;4973430;28;20047;-74
2022/01/03 12:55:38;;;;;;;11.65;3.72;;;11.50;99.90;;;;;;4972691;28;20440;-74
2022/01/03 12:58:13;;;;;;;4.82;2.15;;;11.50;99.90;;;;;;4973749;28;20384;-74
2022/01/03 13:01:04;;;;;;;9.85;3.38;;;11.50;99.60;;;;;;4972686;28;20034;-76
2022/01/03 13:03:40;;;;;;;14.30;9.73;;;11.50;99.90;;;;;;4973591;28;20045;-76
2022/01/03 13:06:10;;;;;;;14.85;5.80;;;11.40;99.90;;;;;;4975481;28;20035;-76
2022/01/03 13:08:41;;;;;;;15.40;4.73;;;11.40;99.20;;;;;;4974667;28;20034;-75
2022/01/03 13:11:11;;;;;;;11.93;7.07;;;11.40;99.90;;;;;;4973289;28;20479;-76
2022/01/03 13:13:40;;;;;;;13.80;7.77;;;11.40;99.90;;;;;;4972399;28;20041;-75
2022/01/03 13:16:24;;;;;;;13.82;5.05;;;11.40;99.90;;;;;;4973217;28;20031;-76
2022/01/03 13:18:53;;;;;;;8.20;4.50;;;11.40;99.90;;;;;;4955035;28;20035;-76
2022/01/03 13:21:21;;;;;;;7.32;4.20;;;11.40;99.90;;;;;;4973306;28;20043;-76